createdAt,value
2022-11-28T00:01:00.931Z,135.18
2022-11-28T00:06:07.720Z,133.66
2022-11-28T00:11:14.843Z,133.16
2022-11-28T00:16:21.719Z,135.44
2022-11-28T00:21:25.117Z,128.48
2022-11-28T00:26:30.040Z,131.70
2022-11-28T00:31:36.518Z,136.59
2022-11-28T00:36:39.920Z,126.71
2022-11-28T00:41:43.986Z,122.69
2022-11-28T00:46:48.635Z,118.03
2022-11-28T00:51:51.867Z,111.54
2022-11-28T00:56:57.367Z,110.18
2022-11-28T01:02:02.008Z,107.25
2022-11-28T01:07:05.269Z,113.54
2022-11-28T01:12:10.823Z,114.00
2022-11-28T01:17:17.665Z,114.05
2022-11-28T01:22:23.351Z,116.54
2022-11-28T01:27:28.854Z,113.21
2022-11-28T01:32:35.684Z,107.21
2022-11-28T01:37:39.410Z,109.70
2022-11-28T01:42:45.121Z,108.31
2022-11-28T01:47:52.972Z,112.77
2022-11-28T01:52:59.034Z,109.68
2022-11-28T01:58:02.676Z,109.15
2022-11-28T02:03:10.986Z,108.18
2022-11-28T02:08:14.247Z,109.98
2022-11-28T02:13:31.270Z,114.51
2022-11-28T02:18:50.412Z,112.16
2022-11-28T02:24:12.587Z,108.84
2022-11-28T02:29:43.425Z,107.74
2022-11-28T02:34:56.385Z,110.28
2022-11-28T02:40:07.598Z,105.32
2022-11-28T02:45:20.879Z,109.38
2022-11-28T02:50:28.525Z,103.69
2022-11-28T02:55:32.173Z,101.67
2022-11-28T03:00:41.360Z,89.94
2022-11-28T03:05:53.023Z,86.19
2022-11-28T03:11:06.150Z,85.24
2022-11-28T03:16:16.772Z,92.33
2022-11-28T03:21:26.910Z,99.94
2022-11-28T03:26:38.852Z,100.95
2022-11-28T03:31:49.630Z,96.50
2022-11-28T03:37:00.882Z,90.46
2022-11-28T03:42:10.780Z,91.93
2022-11-28T03:47:14.071Z,95.41
2022-11-28T03:52:25.264Z,94.81
2022-11-28T03:57:34.505Z,96.04
2022-11-28T04:02:44.653Z,93.36
2022-11-28T04:07:55.491Z,94.71
2022-11-28T04:13:02.701Z,97.91
2022-11-28T04:18:20.009Z,97.31
2022-11-28T04:23:27.205Z,94.54
2022-11-28T04:28:34.221Z,98.28
2022-11-28T04:33:45.202Z,94.53
2022-11-28T04:38:56.496Z,90.85
2022-11-28T04:44:08.959Z,92.87
2022-11-28T04:49:12.844Z,91.72
2022-11-28T04:54:24.004Z,93.57
2022-11-28T04:59:29.539Z,101.19
2022-11-28T05:04:35.946Z,103.14
2022-11-28T05:09:40.555Z,105.35
2022-11-28T05:14:46.218Z,93.92
2022-11-28T05:19:49.759Z,98.17
2022-11-28T05:24:56.492Z,89.96
2022-11-28T05:30:01.913Z,91.02
2022-11-28T05:35:06.363Z,98.31
2022-11-28T05:40:11.300Z,97.20
2022-11-28T05:45:14.599Z,97.41
2022-11-28T05:50:17.859Z,94.00
2022-11-28T05:55:22.555Z,93.12
2022-11-28T06:00:26.095Z,92.76
2022-11-28T06:05:42.725Z,93.31
2022-11-28T06:10:56.691Z,88.95
2022-11-28T06:15:59.925Z,88.81
2022-11-28T06:21:03.815Z,82.16
2022-11-28T06:26:09.412Z,74.78
2022-11-28T06:31:12.969Z,75.11
2022-11-28T06:36:17.507Z,74.75
2022-11-28T06:41:23.120Z,75.10
2022-11-28T06:46:29.072Z,79.76
2022-11-28T06:51:32.461Z,79.52
2022-11-28T06:56:40.700Z,89.39
2022-11-28T07:01:44.115Z,77.62
2022-11-28T07:06:49.971Z,77.21
2022-11-28T07:11:54.555Z,79.35
2022-11-28T07:16:57.858Z,78.42
2022-11-28T07:22:01.291Z,76.13
2022-11-28T07:27:05.905Z,78.64
2022-11-28T07:32:09.279Z,75.91
2022-11-28T07:37:16.613Z,74.83
2022-11-28T07:42:21.296Z,78.76
2022-11-28T07:47:39.394Z,80.76
2022-11-28T07:52:42.669Z,88.21
2022-11-28T07:57:52.054Z,84.83
2022-11-28T08:02:55.402Z,82.09
2022-11-28T08:07:58.815Z,83.13
2022-11-28T08:13:03.575Z,79.31
2022-11-28T08:18:07.162Z,81.05
2022-11-28T08:23:12.963Z,81.88
2022-11-28T08:28:22.332Z,85.75
2022-11-28T08:33:25.740Z,81.94
2022-11-28T08:38:29.085Z,85.34
2022-11-28T08:43:34.837Z,83.49
2022-11-28T08:48:38.518Z,84.36
2022-11-28T08:53:44.002Z,78.89
2022-11-28T08:58:51.960Z,77.41
2022-11-28T09:03:57.838Z,76.77
2022-11-28T09:09:02.070Z,73.63
2022-11-28T09:14:07.018Z,77.14
2022-11-28T09:19:10.856Z,80.87
2022-11-28T09:24:17.237Z,74.27
2022-11-28T09:29:21.868Z,72.52
2022-11-28T09:34:29.991Z,66.70
2022-11-28T09:39:50.139Z,62.62
2022-11-28T09:45:04.467Z,63.26
2022-11-28T09:50:15.395Z,60.22
2022-11-28T09:55:27.672Z,63.78
2022-11-28T10:00:38.187Z,66.98
2022-11-28T10:05:49.720Z,71.78
2022-11-28T10:10:59.658Z,72.56
2022-11-28T10:16:10.588Z,68.34
2022-11-28T10:21:24.459Z,65.09
2022-11-28T10:26:33.747Z,67.13
2022-11-28T10:31:42.645Z,65.87
2022-11-28T10:36:55.512Z,61.40
2022-11-28T10:42:14.004Z,57.29
2022-11-28T10:47:25.330Z,67.66
2022-11-28T10:52:36.047Z,60.54
2022-11-28T10:57:45.216Z,58.98
2022-11-28T11:02:51.178Z,60.23
2022-11-28T11:07:56.695Z,60.23
2022-11-28T11:13:00.969Z,58.75
2022-11-28T11:18:22.213Z,56.91
2022-11-28T11:23:32.776Z,64.43
2022-11-28T11:28:42.705Z,63.93
2022-11-28T11:33:48.702Z,60.61
2022-11-28T11:38:52.285Z,63.36
2022-11-28T11:43:56.048Z,62.15
2022-11-28T11:49:00.845Z,61.52
2022-11-28T11:54:16.598Z,63.03
2022-11-28T11:59:24.380Z,61.06
2022-11-28T12:04:45.778Z,63.52
2022-11-28T12:09:55.058Z,60.38
2022-11-28T12:15:00.566Z,59.09
2022-11-28T12:20:20.105Z,63.88
2022-11-28T12:25:28.428Z,70.10
2022-11-28T12:30:46.805Z,68.42
2022-11-28T12:36:03.419Z,68.48
2022-11-28T12:41:21.084Z,68.10
2022-11-28T12:46:32.375Z,67.62
2022-11-28T12:51:45.354Z,67.62
2022-11-28T12:56:56.241Z,65.98
2022-11-28T13:02:11.878Z,61.00
2022-11-28T13:07:25.821Z,58.96
2022-11-28T13:12:38.748Z,57.63
2022-11-28T13:17:48.290Z,61.80
2022-11-28T13:23:01.273Z,57.90
2022-11-28T13:28:10.177Z,55.61
2022-11-28T13:33:26.815Z,52.75
2022-11-28T13:38:57.438Z,54.61
2022-11-28T13:44:15.699Z,57.89
2022-11-28T13:49:21.535Z,55.92
2022-11-28T13:54:45.688Z,58.26
2022-11-28T13:59:53.453Z,56.39
2022-11-28T14:04:59.976Z,53.94
2022-11-28T14:10:23.122Z,53.99
2022-11-28T14:15:34.658Z,54.21
2022-11-28T14:20:44.880Z,55.57
2022-11-28T14:25:52.560Z,81.61
2022-11-28T14:31:06.378Z,55.61
2022-11-28T14:36:34.671Z,59.52
2022-11-28T14:41:53.098Z,60.76
2022-11-28T14:47:15.525Z,62.14
2022-11-28T14:52:38.626Z,59.09
2022-11-28T14:57:54.681Z,65.93
2022-11-28T15:03:13.311Z,62.90
2022-11-28T15:08:21.867Z,60.50
2022-11-28T15:13:34.445Z,68.62
2022-11-28T15:18:48.231Z,68.02
2022-11-28T15:23:57.222Z,74.23
2022-11-28T15:29:09.142Z,74.45
2022-11-28T15:34:23.548Z,73.17
2022-11-28T15:39:32.204Z,59.88
2022-11-28T15:44:36.583Z,57.00
2022-11-28T15:49:43.124Z,56.32
2022-11-28T15:54:51.494Z,56.22
2022-11-28T15:59:57.261Z,52.29
2022-11-28T16:05:06.308Z,61.18
2022-11-28T16:10:22.101Z,54.78
2022-11-28T16:15:27.942Z,76.31
2022-11-28T16:20:36.307Z,62.81
2022-11-28T16:25:39.591Z,59.97
2022-11-28T16:30:44.728Z,59.08
2022-11-28T16:35:49.397Z,57.19
2022-11-28T16:41:00.845Z,59.18
2022-11-28T16:46:06.564Z,58.10
2022-11-28T16:51:25.420Z,58.27
2022-11-28T16:56:44.076Z,55.17
2022-11-28T17:01:53.134Z,53.64
2022-11-28T17:06:58.388Z,53.56
2022-11-28T17:12:06.004Z,56.55
2022-11-28T17:17:14.315Z,55.40
2022-11-28T17:22:21.549Z,54.97
2022-11-28T17:27:28.922Z,56.47
2022-11-28T17:32:38.236Z,62.97
2022-11-28T17:37:43.934Z,73.18
2022-11-28T17:42:48.629Z,64.78
2022-11-28T17:47:54.343Z,63.60
2022-11-28T17:52:57.718Z,53.91
2022-11-28T17:58:02.461Z,58.04
2022-11-28T18:03:05.751Z,57.24
2022-11-28T18:08:09.161Z,57.24
2022-11-28T18:13:16.343Z,56.59
2022-11-28T18:18:19.804Z,60.38
2022-11-28T18:23:25.597Z,58.43
2022-11-28T18:28:30.343Z,62.93
2022-11-28T18:33:34.962Z,58.17
2022-11-28T18:38:38.560Z,57.82
2022-11-28T18:43:46.198Z,57.84
2022-11-28T18:48:52.116Z,59.14
2022-11-28T18:53:56.615Z,61.07
2022-11-28T18:59:04.286Z,80.39
2022-11-28T19:04:12.244Z,64.20
2022-11-28T19:09:19.180Z,62.30
2022-11-28T19:14:23.918Z,66.49
2022-11-28T19:19:28.244Z,65.16
2022-11-28T19:24:33.989Z,63.41
2022-11-28T19:29:41.556Z,60.54
2022-11-28T19:34:52.334Z,57.29
2022-11-28T19:39:59.746Z,60.65
2022-11-28T19:45:10.510Z,56.16
2022-11-28T19:50:14.015Z,58.79
2022-11-28T19:55:17.462Z,56.03
2022-11-28T20:00:22.710Z,55.26
2022-11-28T20:05:28.409Z,56.96
2022-11-28T20:10:31.696Z,61.81
2022-11-28T20:15:38.932Z,53.84
2022-11-28T20:20:42.396Z,51.06
2022-11-28T20:25:45.714Z,46.50
2022-11-28T20:30:50.685Z,43.34
2022-11-28T20:35:58.480Z,44.18
2022-11-28T20:41:04.646Z,43.22
2022-11-28T20:46:11.131Z,42.67
2022-11-28T20:51:15.753Z,45.34
2022-11-28T20:56:20.825Z,43.51
2022-11-28T21:01:27.131Z,43.65
2022-11-28T21:06:33.228Z,43.91
2022-11-28T21:11:56.343Z,45.83
2022-11-28T21:17:01.455Z,42.28
2022-11-28T21:22:04.759Z,41.38
2022-11-28T21:27:10.370Z,42.98
2022-11-28T21:32:16.275Z,43.72
2022-11-28T21:37:19.765Z,45.30
2022-11-28T21:42:23.013Z,46.68
2022-11-28T21:47:27.737Z,47.74
2022-11-28T21:52:30.998Z,44.36
2022-11-28T21:57:34.254Z,44.43
2022-11-28T22:02:46.267Z,43.80
2022-11-28T22:07:52.244Z,40.61
2022-11-28T22:12:55.574Z,43.19
2022-11-28T22:18:00.279Z,45.30
2022-11-28T22:23:04.658Z,47.96
2022-11-28T22:28:08.739Z,45.13
2022-11-28T22:33:13.407Z,43.56
2022-11-28T22:38:17.999Z,45.80
2022-11-28T22:43:21.808Z,47.07
2022-11-28T22:48:27.253Z,45.60
2022-11-28T22:53:33.646Z,49.10
2022-11-28T22:58:42.285Z,49.97
2022-11-28T23:03:48.268Z,46.96
2022-11-28T23:08:51.730Z,47.67
2022-11-28T23:13:55.368Z,46.94
2022-11-28T23:19:01.564Z,46.35
2022-11-28T23:24:05.609Z,45.73
2022-11-28T23:29:09.846Z,43.93
2022-11-28T23:34:15.225Z,39.21
2022-11-28T23:39:22.977Z,38.05
2022-11-28T23:44:26.432Z,35.80
2022-11-28T23:49:34.431Z,67.42
2022-11-28T23:54:37.724Z,40.32
2022-11-28T23:59:40.957Z,39.32
